sensor_id;sensor_type;location;lat;lon;timestamp;temperature;humidity
3564;DHT22;1796;52.388;13.096;2023-05-10T00:01:55;11.50;99.90
3564;DHT22;1796;52.388;13.096;2023-05-10T00:04:22;11.40;99.90
3564;DHT22;1796;52.388;13.096;2023-05-10T00:06:52;11.50;99.90
3564;DHT22;1796;52.388;13.096;2023-05-10T00:09:20;11.50;99.90
3564;DHT22;1796;52.388;13.096;2023-05-10T00:11:47;11.40;99.90
3564;DHT22;1796;52.388;13.096;2023-05-10T00:14:14;11.50;99.90
3564;DHT22;1796;52.388;13.096;2023-05-10T00:16:41;11.40;99.90
3564;DHT22;1796;52.388;13.096;2023-05-10T00:19:08;11.40;99.90
3564;DHT22;1796;52.388;13.096;2023-05-10T00:21:35;11.40;99.90
3564;DHT22;1796;52.388;13.096;2023-05-10T00:24:02;11.40;99.90
3564;DHT22;1796;52.388;13.096;2023-05-10T00:26:30;11.30;99.90
3564;DHT22;1796;52.388;13.096;2023-05-10T00:28:57;11.30;99.90
3564;DHT22;1796;52.388;13.096;2023-05-10T00:31:24;11.30;99.90
3564;DHT22;1796;52.388;13.096;2023-05-10T00:33:51;11.20;99.90
3564;DHT22;1796;52.388;13.096;2023-05-10T00:36:18;11.10;99.90
3564;DHT22;1796;52.388;13.096;2023-05-10T00:38:44;11.00;99.90
3564;DHT22;1796;52.388;13.096;2023-05-10T00:41:11;11.00;99.90
3564;DHT22;1796;52.388;13.096;2023-05-10T00:43:40;11.00;99.90
3564;DHT22;1796;52.388;13.096;2023-05-10T00:46:07;11.00;99.90
3564;DHT22;1796;52.388;13.096;2023-05-10T00:48:34;10.90;99.90
3564;DHT22;1796;52.388;13.096;2023-05-10T00:51:02;10.90;99.90
3564;DHT22;1796;52.388;13.096;2023-05-10T00:53:31;10.90;99.90
3564;DHT22;1796;52.388;13.096;2023-05-10T00:55:58;11.00;99.90
3564;DHT22;1796;52.388;13.096;2023-05-10T00:58:25;10.90;99.90
3564;DHT22;1796;52.388;13.096;2023-05-10T01:00:55;10.80;99.90
3564;DHT22;1796;52.388;13.096;2023-05-10T01:03:22;10.70;99.90
3564;DHT22;1796;52.388;13.096;2023-05-10T01:05:49;10.70;99.90
3564;DHT22;1796;52.388;13.096;2023-05-10T01:08:16;10.70;99.90
3564;DHT22;1796;52.388;13.096;2023-05-10T01:10:44;10.80;99.90
3564;DHT22;1796;52.388;13.096;2023-05-10T01:13:12;10.80;99.90
3564;DHT22;1796;52.388;13.096;2023-05-10T01:15:40;10.70;99.90
3564;DHT22;1796;52.388;13.096;2023-05-10T01:18:08;10.70;99.90
3564;DHT22;1796;52.388;13.096;2023-05-10T01:20:39;10.70;99.90
3564;DHT22;1796;52.388;13.096;2023-05-10T01:23:36;10.60;99.90
3564;DHT22;1796;52.388;13.096;2023-05-10T01:26:38;10.60;99.90
3564;DHT22;1796;52.388;13.096;2023-05-10T01:29:42;10.40;99.90
3564;DHT22;1796;52.388;13.096;2023-05-10T01:32:22;10.30;99.90
3564;DHT22;1796;52.388;13.096;2023-05-10T01:34:56;10.40;99.90
3564;DHT22;1796;52.388;13.096;2023-05-10T01:37:31;10.30;99.90
3564;DHT22;1796;52.388;13.096;2023-05-10T01:40:02;10.30;99.90
3564;DHT22;1796;52.388;13.096;2023-05-10T01:42:39;10.20;99.90
3564;DHT22;1796;52.388;13.096;2023-05-10T01:45:14;10.20;99.90
3564;DHT22;1796;52.388;13.096;2023-05-10T01:47:50;10.10;99.90
3564;DHT22;1796;52.388;13.096;2023-05-10T01:50:19;10.00;99.90
3564;DHT22;1796;52.388;13.096;2023-05-10T01:52:53;9.90;99.90
3564;DHT22;1796;52.388;13.096;2023-05-10T01:55:22;9.70;99.90
3564;DHT22;1796;52.388;13.096;2023-05-10T01:58:00;9.60;99.90
3564;DHT22;1796;52.388;13.096;2023-05-10T02:00:29;9.60;99.90
3564;DHT22;1796;52.388;13.096;2023-05-10T02:03:00;9.50;99.90
3564;DHT22;1796;52.388;13.096;2023-05-10T02:05:29;9.50;99.90
3564;DHT22;1796;52.388;13.096;2023-05-10T02:07:58;9.50;99.90
3564;DHT22;1796;52.388;13.096;2023-05-10T02:10:26;9.50;99.90
3564;DHT22;1796;52.388;13.096;2023-05-10T02:12:54;9.40;99.90
3564;DHT22;1796;52.388;13.096;2023-05-10T02:15:23;9.30;99.90
3564;DHT22;1796;52.388;13.096;2023-05-10T02:17:52;9.40;99.90
3564;DHT22;1796;52.388;13.096;2023-05-10T02:20:23;9.40;99.90
3564;DHT22;1796;52.388;13.096;2023-05-10T02:22:52;9.20;99.90
3564;DHT22;1796;52.388;13.096;2023-05-10T02:25:21;9.20;99.90
3564;DHT22;1796;52.388;13.096;2023-05-10T02:27:50;9.10;99.90
3564;DHT22;1796;52.388;13.096;2023-05-10T02:30:18;9.00;99.90
3564;DHT22;1796;52.388;13.096;2023-05-10T02:32:46;9.00;99.90
3564;DHT22;1796;52.388;13.096;2023-05-10T02:35:14;9.00;99.90
3564;DHT22;1796;52.388;13.096;2023-05-10T02:37:43;9.00;99.90
3564;DHT22;1796;52.388;13.096;2023-05-10T02:40:12;9.00;99.90
3564;DHT22;1796;52.388;13.096;2023-05-10T02:42:41;9.00;99.90
3564;DHT22;1796;52.388;13.096;2023-05-10T02:45:14;9.00;99.90
3564;DHT22;1796;52.388;13.096;2023-05-10T02:47:41;8.90;99.90
3564;DHT22;1796;52.388;13.096;2023-05-10T02:50:09;8.80;99.90
3564;DHT22;1796;52.388;13.096;2023-05-10T02:52:40;8.70;99.90
3564;DHT22;1796;52.388;13.096;2023-05-10T02:55:11;8.60;99.90
3564;DHT22;1796;52.388;13.096;2023-05-10T02:57:42;8.60;99.90
3564;DHT22;1796;52.388;13.096;2023-05-10T03:00:11;8.70;99.90
3564;DHT22;1796;52.388;13.096;2023-05-10T03:02:37;8.80;99.90
3564;DHT22;1796;52.388;13.096;2023-05-10T03:05:05;8.80;99.90
3564;DHT22;1796;52.388;13.096;2023-05-10T03:07:32;8.70;99.90
3564;DHT22;1796;52.388;13.096;2023-05-10T03:10:00;8.70;99.90
3564;DHT22;1796;52.388;13.096;2023-05-10T03:12:38;8.70;99.90
3564;DHT22;1796;52.388;13.096;2023-05-10T03:15:13;8.80;99.90
3564;DHT22;1796;52.388;13.096;2023-05-10T03:17:47;8.80;99.90
3564;DHT22;1796;52.388;13.096;2023-05-10T03:20:22;8.80;99.90
3564;DHT22;1796;52.388;13.096;2023-05-10T03:22:55;8.80;99.90
3564;DHT22;1796;52.388;13.096;2023-05-10T03:25:23;8.80;99.90
3564;DHT22;1796;52.388;13.096;2023-05-10T03:27:52;8.70;99.90
3564;DHT22;1796;52.388;13.096;2023-05-10T03:30:19;8.70;99.90
3564;DHT22;1796;52.388;13.096;2023-05-10T03:32:46;8.60;99.90
3564;DHT22;1796;52.388;13.096;2023-05-10T03:35:13;8.60;99.90
3564;DHT22;1796;52.388;13.096;2023-05-10T03:37:40;8.60;99.90
3564;DHT22;1796;52.388;13.096;2023-05-10T03:40:08;8.70;99.90
3564;DHT22;1796;52.388;13.096;2023-05-10T03:42:35;8.70;99.90
3564;DHT22;1796;52.388;13.096;2023-05-10T03:45:04;8.70;99.90
3564;DHT22;1796;52.388;13.096;2023-05-10T03:47:31;8.70;99.90
3564;DHT22;1796;52.388;13.096;2023-05-10T03:49:58;8.70;99.90
3564;DHT22;1796;52.388;13.096;2023-05-10T03:52:25;8.70;99.90
3564;DHT22;1796;52.388;13.096;2023-05-10T03:54:52;9.10;99.90
3564;DHT22;1796;52.388;13.096;2023-05-10T03:57:18;9.50;99.90
3564;DHT22;1796;52.388;13.096;2023-05-10T03:59:45;9.90;99.90
3564;DHT22;1796;52.388;13.096;2023-05-10T04:02:14;10.30;99.90
3564;DHT22;1796;52.388;13.096;2023-05-10T04:04:41;10.70;99.90
3564;DHT22;1796;52.388;13.096;2023-05-10T04:07:08;11.00;99.90
3564;DHT22;1796;52.388;13.096;2023-05-10T04:09:35;11.30;99.90
3564;DHT22;1796;52.388;13.096;2023-05-10T04:12:02;11.40;99.90
3564;DHT22;1796;52.388;13.096;2023-05-10T04:14:29;11.60;99.90
3564;DHT22;1796;52.388;13.096;2023-05-10T04:16:56;11.80;99.90
3564;DHT22;1796;52.388;13.096;2023-05-10T04:19:29;11.90;99.90
3564;DHT22;1796;52.388;13.096;2023-05-10T04:21:56;12.10;99.90
3564;DHT22;1796;52.388;13.096;2023-05-10T04:24:22;12.30;99.90
3564;DHT22;1796;52.388;13.096;2023-05-10T04:26:49;12.40;99.90
3564;DHT22;1796;52.388;13.096;2023-05-10T04:29:16;12.70;99.90
3564;DHT22;1796;52.388;13.096;2023-05-10T04:31:43;12.90;99.90
3564;DHT22;1796;52.388;13.096;2023-05-10T04:34:10;13.10;99.90
3564;DHT22;1796;52.388;13.096;2023-05-10T04:36:38;13.40;99.90
3564;DHT22;1796;52.388;13.096;2023-05-10T04:39:06;13.30;99.90
3564;DHT22;1796;52.388;13.096;2023-05-10T04:41:33;13.40;99.90
3564;DHT22;1796;52.388;13.096;2023-05-10T04:44:00;13.60;99.90
3564;DHT22;1796;52.388;13.096;2023-05-10T04:46:27;13.70;99.90
3564;DHT22;1796;52.388;13.096;2023-05-10T04:48:54;13.90;99.90
3564;DHT22;1796;52.388;13.096;2023-05-10T04:51:21;13.80;99.90
3564;DHT22;1796;52.388;13.096;2023-05-10T04:53:49;13.80;99.90
3564;DHT22;1796;52.388;13.096;2023-05-10T04:56:16;13.70;99.90
3564;DHT22;1796;52.388;13.096;2023-05-10T04:58:43;13.80;99.90
3564;DHT22;1796;52.388;13.096;2023-05-10T05:01:10;14.00;99.90
3564;DHT22;1796;52.388;13.096;2023-05-10T05:03:37;14.10;99.90
3564;DHT22;1796;52.388;13.096;2023-05-10T05:06:04;14.20;99.90
3564;DHT22;1796;52.388;13.096;2023-05-10T05:08:31;14.40;99.90
3564;DHT22;1796;52.388;13.096;2023-05-10T05:10:59;14.40;99.90
3564;DHT22;1796;52.388;13.096;2023-05-10T05:13:26;14.50;99.90
3564;DHT22;1796;52.388;13.096;2023-05-10T05:15:53;14.50;99.90
3564;DHT22;1796;52.388;13.096;2023-05-10T05:18:20;14.40;99.90
3564;DHT22;1796;52.388;13.096;2023-05-10T05:20:47;14.60;99.90
3564;DHT22;1796;52.388;13.096;2023-05-10T05:23:13;14.80;99.90
3564;DHT22;1796;52.388;13.096;2023-05-10T05:25:40;14.90;99.90
3564;DHT22;1796;52.388;13.096;2023-05-10T05:28:08;15.10;99.90
3564;DHT22;1796;52.388;13.096;2023-05-10T05:30:35;14.80;99.90
3564;DHT22;1796;52.388;13.096;2023-05-10T05:33:02;15.00;99.90
3564;DHT22;1796;52.388;13.096;2023-05-10T05:35:29;15.40;99.90
3564;DHT22;1796;52.388;13.096;2023-05-10T05:37:56;15.50;99.90
3564;DHT22;1796;52.388;13.096;2023-05-10T05:40:23;15.70;99.90
3564;DHT22;1796;52.388;13.096;2023-05-10T05:42:50;15.90;99.90
3564;DHT22;1796;52.388;13.096;2023-05-10T05:45:18;16.10;99.90
3564;DHT22;1796;52.388;13.096;2023-05-10T05:47:45;16.40;99.90
3564;DHT22;1796;52.388;13.096;2023-05-10T05:50:12;16.60;99.90
3564;DHT22;1796;52.388;13.096;2023-05-10T05:52:39;16.70;99.90
3564;DHT22;1796;52.388;13.096;2023-05-10T05:55:07;17.00;99.90
3564;DHT22;1796;52.388;13.096;2023-05-10T05:57:33;16.40;99.90
3564;DHT22;1796;52.388;13.096;2023-05-10T06:00:00;16.30;99.90
3564;DHT22;1796;52.388;13.096;2023-05-10T06:02:29;16.60;99.90
3564;DHT22;1796;52.388;13.096;2023-05-10T06:04:56;17.00;99.90
3564;DHT22;1796;52.388;13.096;2023-05-10T06:07:23;17.40;99.90
3564;DHT22;1796;52.388;13.096;2023-05-10T06:09:50;17.60;99.90
3564;DHT22;1796;52.388;13.096;2023-05-10T06:12:17;18.20;99.90
3564;DHT22;1796;52.388;13.096;2023-05-10T06:14:44;18.30;99.90
3564;DHT22;1796;52.388;13.096;2023-05-10T06:17:11;18.40;99.90
3564;DHT22;1796;52.388;13.096;2023-05-10T06:19:39;17.60;99.90
3564;DHT22;1796;52.388;13.096;2023-05-10T06:22:06;17.40;99.90
3564;DHT22;1796;52.388;13.096;2023-05-10T06:24:33;17.20;99.90
3564;DHT22;1796;52.388;13.096;2023-05-10T06:27:00;17.80;99.90
3564;DHT22;1796;52.388;13.096;2023-05-10T06:29:27;17.70;99.90
3564;DHT22;1796;52.388;13.096;2023-05-10T06:31:54;17.70;99.90
3564;DHT22;1796;52.388;13.096;2023-05-10T06:34:21;18.00;99.90
3564;DHT22;1796;52.388;13.096;2023-05-10T06:36:49;18.10;99.90
3564;DHT22;1796;52.388;13.096;2023-05-10T06:39:17;17.80;99.90
3564;DHT22;1796;52.388;13.096;2023-05-10T06:41:44;18.00;99.90
3564;DHT22;1796;52.388;13.096;2023-05-10T06:44:11;17.80;99.90
3564;DHT22;1796;52.388;13.096;2023-05-10T06:46:38;18.50;99.90
3564;DHT22;1796;52.388;13.096;2023-05-10T06:49:05;18.80;99.90
3564;DHT22;1796;52.388;13.096;2023-05-10T06:51:32;19.10;99.90
3564;DHT22;1796;52.388;13.096;2023-05-10T06:54:00;19.30;99.90
3564;DHT22;1796;52.388;13.096;2023-05-10T06:56:27;19.40;99.90
3564;DHT22;1796;52.388;13.096;2023-05-10T06:58:54;19.90;99.90
3564;DHT22;1796;52.388;13.096;2023-05-10T07:01:21;20.40;99.90
3564;DHT22;1796;52.388;13.096;2023-05-10T07:03:48;21.10;99.90
3564;DHT22;1796;52.388;13.096;2023-05-10T07:06:14;21.30;99.90
3564;DHT22;1796;52.388;13.096;2023-05-10T07:08:41;21.80;99.90
3564;DHT22;1796;52.388;13.096;2023-05-10T07:11:10;21.70;99.90
3564;DHT22;1796;52.388;13.096;2023-05-10T07:13:37;21.90;99.90
3564;DHT22;1796;52.388;13.096;2023-05-10T07:16:06;22.00;99.90
3564;DHT22;1796;52.388;13.096;2023-05-10T07:18:33;21.80;99.90
3564;DHT22;1796;52.388;13.096;2023-05-10T07:21:00;22.20;99.90
3564;DHT22;1796;52.388;13.096;2023-05-10T07:23:27;22.40;99.90
3564;DHT22;1796;52.388;13.096;2023-05-10T07:25:55;22.30;99.90
3564;DHT22;1796;52.388;13.096;2023-05-10T07:28:24;22.30;99.90
3564;DHT22;1796;52.388;13.096;2023-05-10T07:30:51;21.30;99.90
3564;DHT22;1796;52.388;13.096;2023-05-10T07:33:18;20.80;99.90
3564;DHT22;1796;52.388;13.096;2023-05-10T07:35:45;21.40;99.90
3564;DHT22;1796;52.388;13.096;2023-05-10T07:38:12;21.50;99.90
3564;DHT22;1796;52.388;13.096;2023-05-10T07:40:39;21.00;99.90
3564;DHT22;1796;52.388;13.096;2023-05-10T07:43:06;22.00;99.90
3564;DHT22;1796;52.388;13.096;2023-05-10T07:45:34;22.10;99.90
3564;DHT22;1796;52.388;13.096;2023-05-10T07:48:01;21.90;99.90
3564;DHT22;1796;52.388;13.096;2023-05-10T07:50:28;21.70;99.90
3564;DHT22;1796;52.388;13.096;2023-05-10T07:52:55;22.30;99.90
3564;DHT22;1796;52.388;13.096;2023-05-10T07:55:22;22.20;99.90
3564;DHT22;1796;52.388;13.096;2023-05-10T07:57:49;22.50;99.90
3564;DHT22;1796;52.388;13.096;2023-05-10T08:00:18;23.10;99.90
3564;DHT22;1796;52.388;13.096;2023-05-10T08:02:47;23.20;99.90
3564;DHT22;1796;52.388;13.096;2023-05-10T08:05:14;22.30;99.90
3564;DHT22;1796;52.388;13.096;2023-05-10T08:07:41;23.00;99.90
3564;DHT22;1796;52.388;13.096;2023-05-10T08:10:09;23.10;99.90
3564;DHT22;1796;52.388;13.096;2023-05-10T08:12:36;23.20;99.90
3564;DHT22;1796;52.388;13.096;2023-05-10T08:15:05;22.10;99.90
3564;DHT22;1796;52.388;13.096;2023-05-10T08:17:32;22.70;99.90
3564;DHT22;1796;52.388;13.096;2023-05-10T08:20:00;22.90;99.90
3564;DHT22;1796;52.388;13.096;2023-05-10T08:22:28;22.90;99.90
3564;DHT22;1796;52.388;13.096;2023-05-10T08:24:54;22.40;99.90
3564;DHT22;1796;52.388;13.096;2023-05-10T08:27:21;21.20;99.90
3564;DHT22;1796;52.388;13.096;2023-05-10T08:29:48;21.70;99.90
3564;DHT22;1796;52.388;13.096;2023-05-10T08:32:15;22.30;99.90
3564;DHT22;1796;52.388;13.096;2023-05-10T08:34:42;22.10;99.90
3564;DHT22;1796;52.388;13.096;2023-05-10T08:37:10;21.20;99.90
3564;DHT22;1796;52.388;13.096;2023-05-10T08:39:38;20.80;99.90
3564;DHT22;1796;52.388;13.096;2023-05-10T08:42:06;20.60;99.90
3564;DHT22;1796;52.388;13.096;2023-05-10T08:44:35;20.60;99.90
3564;DHT22;1796;52.388;13.096;2023-05-10T08:47:04;20.40;99.90
3564;DHT22;1796;52.388;13.096;2023-05-10T08:49:32;20.40;99.90
3564;DHT22;1796;52.388;13.096;2023-05-10T08:52:02;20.10;99.90
3564;DHT22;1796;52.388;13.096;2023-05-10T08:54:31;20.00;99.90
3564;DHT22;1796;52.388;13.096;2023-05-10T08:56:58;20.00;99.90
3564;DHT22;1796;52.388;13.096;2023-05-10T08:59:25;20.00;99.90
3564;DHT22;1796;52.388;13.096;2023-05-10T09:01:54;19.70;99.90
3564;DHT22;1796;52.388;13.096;2023-05-10T09:04:22;19.70;99.90
3564;DHT22;1796;52.388;13.096;2023-05-10T09:06:49;19.60;99.90
3564;DHT22;1796;52.388;13.096;2023-05-10T09:09:17;19.60;99.90
3564;DHT22;1796;52.388;13.096;2023-05-10T09:11:45;19.70;99.90
3564;DHT22;1796;52.388;13.096;2023-05-10T09:14:13;19.70;99.90
3564;DHT22;1796;52.388;13.096;2023-05-10T09:16:41;19.70;99.90
3564;DHT22;1796;52.388;13.096;2023-05-10T09:19:08;19.70;99.90
3564;DHT22;1796;52.388;13.096;2023-05-10T09:21:36;19.70;99.90
3564;DHT22;1796;52.388;13.096;2023-05-10T09:24:04;19.70;99.90
3564;DHT22;1796;52.388;13.096;2023-05-10T09:26:32;19.70;99.90
3564;DHT22;1796;52.388;13.096;2023-05-10T09:29:00;19.70;99.90
3564;DHT22;1796;52.388;13.096;2023-05-10T09:31:45;19.80;99.90
3564;DHT22;1796;52.388;13.096;2023-05-10T09:34:15;19.80;99.90
3564;DHT22;1796;52.388;13.096;2023-05-10T09:36:54;19.90;99.90
3564;DHT22;1796;52.388;13.096;2023-05-10T09:39:30;19.90;99.90
3564;DHT22;1796;52.388;13.096;2023-05-10T09:41:58;20.10;99.90
3564;DHT22;1796;52.388;13.096;2023-05-10T09:44:27;20.20;99.90
3564;DHT22;1796;52.388;13.096;2023-05-10T09:46:54;20.20;99.90
3564;DHT22;1796;52.388;13.096;2023-05-10T09:49:21;20.30;99.90
3564;DHT22;1796;52.388;13.096;2023-05-10T09:52:00;20.20;99.90
3564;DHT22;1796;52.388;13.096;2023-05-10T09:54:28;20.30;99.90
3564;DHT22;1796;52.388;13.096;2023-05-10T09:56:55;20.10;99.90
3564;DHT22;1796;52.388;13.096;2023-05-10T09:59:23;20.00;99.90
3564;DHT22;1796;52.388;13.096;2023-05-10T10:01:53;20.10;99.90
3564;DHT22;1796;52.388;13.096;2023-05-10T10:04:20;20.10;99.90
3564;DHT22;1796;52.388;13.096;2023-05-10T10:06:58;20.10;99.90
3564;DHT22;1796;52.388;13.096;2023-05-10T10:09:27;20.20;99.90
3564;DHT22;1796;52.388;13.096;2023-05-10T10:11:54;20.30;99.90
3564;DHT22;1796;52.388;13.096;2023-05-10T10:14:22;19.90;99.90
3564;DHT22;1796;52.388;13.096;2023-05-10T10:16:49;20.00;99.90
3564;DHT22;1796;52.388;13.096;2023-05-10T10:19:18;20.10;99.90
3564;DHT22;1796;52.388;13.096;2023-05-10T10:21:45;20.20;99.90
3564;DHT22;1796;52.388;13.096;2023-05-10T10:24:12;20.30;99.90
3564;DHT22;1796;52.388;13.096;2023-05-10T10:26:39;20.30;99.90
3564;DHT22;1796;52.388;13.096;2023-05-10T10:29:15;20.20;99.90
3564;DHT22;1796;52.388;13.096;2023-05-10T10:31:46;20.20;99.90
3564;DHT22;1796;52.388;13.096;2023-05-10T10:34:25;20.50;99.90
3564;DHT22;1796;52.388;13.096;2023-05-10T10:36:54;20.40;99.90
3564;DHT22;1796;52.388;13.096;2023-05-10T10:39:21;20.50;99.90
3564;DHT22;1796;52.388;13.096;2023-05-10T10:41:51;20.50;99.90
3564;DHT22;1796;52.388;13.096;2023-05-10T10:44:36;20.60;99.90
3564;DHT22;1796;52.388;13.096;2023-05-10T10:47:05;20.70;99.90
3564;DHT22;1796;52.388;13.096;2023-05-10T10:49:43;20.60;99.90
3564;DHT22;1796;52.388;13.096;2023-05-10T10:52:14;20.70;99.90
3564;DHT22;1796;52.388;13.096;2023-05-10T10:54:49;20.80;99.90
3564;DHT22;1796;52.388;13.096;2023-05-10T10:57:18;20.70;99.90
3564;DHT22;1796;52.388;13.096;2023-05-10T10:59:47;20.70;99.90
3564;DHT22;1796;52.388;13.096;2023-05-10T11:02:33;20.40;99.90
3564;DHT22;1796;52.388;13.096;2023-05-10T11:05:22;20.40;99.90
3564;DHT22;1796;52.388;13.096;2023-05-10T11:07:53;20.40;99.90
3564;DHT22;1796;52.388;13.096;2023-05-10T11:10:21;20.60;99.90
3564;DHT22;1796;52.388;13.096;2023-05-10T11:12:52;20.70;99.90
3564;DHT22;1796;52.388;13.096;2023-05-10T11:15:19;20.70;99.90
3564;DHT22;1796;52.388;13.096;2023-05-10T11:17:48;20.70;99.90
3564;DHT22;1796;52.388;13.096;2023-05-10T11:20:18;20.70;99.90
3564;DHT22;1796;52.388;13.096;2023-05-10T11:22:50;21.00;99.90
3564;DHT22;1796;52.388;13.096;2023-05-10T11:25:17;21.30;99.90
3564;DHT22;1796;52.388;13.096;2023-05-10T11:27:44;21.20;99.90
3564;DHT22;1796;52.388;13.096;2023-05-10T11:30:12;21.00;99.90
3564;DHT22;1796;52.388;13.096;2023-05-10T11:32:39;21.10;99.90
3564;DHT22;1796;52.388;13.096;2023-05-10T11:35:07;21.30;99.90
3564;DHT22;1796;52.388;13.096;2023-05-10T11:37:36;21.30;99.90
3564;DHT22;1796;52.388;13.096;2023-05-10T11:40:07;21.50;99.90
3564;DHT22;1796;52.388;13.096;2023-05-10T11:42:36;21.70;99.90
3564;DHT22;1796;52.388;13.096;2023-05-10T11:45:04;21.70;99.90
3564;DHT22;1796;52.388;13.096;2023-05-10T11:47:31;21.70;99.90
3564;DHT22;1796;52.388;13.096;2023-05-10T11:49:58;21.40;99.90
3564;DHT22;1796;52.388;13.096;2023-05-10T11:52:25;21.50;99.90
3564;DHT22;1796;52.388;13.096;2023-05-10T11:54:54;21.70;99.90
3564;DHT22;1796;52.388;13.096;2023-05-10T11:57:26;21.70;99.90
3564;DHT22;1796;52.388;13.096;2023-05-10T11:59:53;21.60;99.90
3564;DHT22;1796;52.388;13.096;2023-05-10T12:02:21;21.50;99.90
3564;DHT22;1796;52.388;13.096;2023-05-10T12:04:48;21.60;99.90
3564;DHT22;1796;52.388;13.096;2023-05-10T12:07:15;21.70;99.90
3564;DHT22;1796;52.388;13.096;2023-05-10T12:09:43;21.70;99.90
3564;DHT22;1796;52.388;13.096;2023-05-10T12:12:16;21.80;99.90
3564;DHT22;1796;52.388;13.096;2023-05-10T12:14:43;21.80;99.90
3564;DHT22;1796;52.388;13.096;2023-05-10T12:17:11;21.90;99.90
3564;DHT22;1796;52.388;13.096;2023-05-10T12:19:39;22.00;99.90
3564;DHT22;1796;52.388;13.096;2023-05-10T12:22:06;22.10;99.90
3564;DHT22;1796;52.388;13.096;2023-05-10T12:24:34;22.40;99.90
3564;DHT22;1796;52.388;13.096;2023-05-10T12:27:04;22.30;99.90
3564;DHT22;1796;52.388;13.096;2023-05-10T12:29:34;22.20;99.90
3564;DHT22;1796;52.388;13.096;2023-05-10T12:32:02;22.20;99.90
3564;DHT22;1796;52.388;13.096;2023-05-10T12:34:31;22.20;99.90
3564;DHT22;1796;52.388;13.096;2023-05-10T12:36:59;22.30;99.90
3564;DHT22;1796;52.388;13.096;2023-05-10T12:39:26;22.30;99.90
3564;DHT22;1796;52.388;13.096;2023-05-10T12:41:53;22.50;99.90
3564;DHT22;1796;52.388;13.096;2023-05-10T12:44:19;22.40;99.90
3564;DHT22;1796;52.388;13.096;2023-05-10T12:46:48;22.60;99.90
3564;DHT22;1796;52.388;13.096;2023-05-10T12:49:14;22.50;99.90
3564;DHT22;1796;52.388;13.096;2023-05-10T12:51:42;22.40;99.90
3564;DHT22;1796;52.388;13.096;2023-05-10T12:54:09;22.50;99.90
3564;DHT22;1796;52.388;13.096;2023-05-10T12:56:36;22.80;99.90
3564;DHT22;1796;52.388;13.096;2023-05-10T12:59:03;22.80;99.90
3564;DHT22;1796;52.388;13.096;2023-05-10T13:01:30;23.00;99.90
3564;DHT22;1796;52.388;13.096;2023-05-10T13:03:58;23.10;99.90
3564;DHT22;1796;52.388;13.096;2023-05-10T13:06:25;23.30;99.90
3564;DHT22;1796;52.388;13.096;2023-05-10T13:08:52;23.30;99.90
3564;DHT22;1796;52.388;13.096;2023-05-10T13:11:19;23.60;99.90
3564;DHT22;1796;52.388;13.096;2023-05-10T13:13:47;23.70;99.90
3564;DHT22;1796;52.388;13.096;2023-05-10T13:16:13;23.80;99.90
3564;DHT22;1796;52.388;13.096;2023-05-10T13:18:40;23.90;99.90
3564;DHT22;1796;52.388;13.096;2023-05-10T13:21:08;24.20;99.90
3564;DHT22;1796;52.388;13.096;2023-05-10T13:23:36;24.40;99.90
3564;DHT22;1796;52.388;13.096;2023-05-10T13:26:03;24.40;99.90
3564;DHT22;1796;52.388;13.096;2023-05-10T13:28:30;24.40;99.90
3564;DHT22;1796;52.388;13.096;2023-05-10T13:30:57;24.60;99.90
3564;DHT22;1796;52.388;13.096;2023-05-10T13:33:25;24.60;99.90
3564;DHT22;1796;52.388;13.096;2023-05-10T13:35:52;24.20;99.90
3564;DHT22;1796;52.388;13.096;2023-05-10T13:38:20;24.30;99.90
3564;DHT22;1796;52.388;13.096;2023-05-10T13:40:47;24.40;99.90
3564;DHT22;1796;52.388;13.096;2023-05-10T13:43:17;24.60;99.80
3564;DHT22;1796;52.388;13.096;2023-05-10T13:45:44;24.70;99.90
3564;DHT22;1796;52.388;13.096;2023-05-10T13:48:11;24.50;99.00
3564;DHT22;1796;52.388;13.096;2023-05-10T13:50:38;24.30;99.60
3564;DHT22;1796;52.388;13.096;2023-05-10T13:53:05;24.40;99.60
3564;DHT22;1796;52.388;13.096;2023-05-10T13:55:33;24.40;99.50
3564;DHT22;1796;52.388;13.096;2023-05-10T13:58:01;24.10;99.40
3564;DHT22;1796;52.388;13.096;2023-05-10T14:00:28;24.10;99.60
3564;DHT22;1796;52.388;13.096;2023-05-10T14:02:55;24.00;99.10
3564;DHT22;1796;52.388;13.096;2023-05-10T14:05:22;24.00;99.50
3564;DHT22;1796;52.388;13.096;2023-05-10T14:07:50;24.10;99.10
3564;DHT22;1796;52.388;13.096;2023-05-10T14:10:17;24.10;99.60
3564;DHT22;1796;52.388;13.096;2023-05-10T14:12:45;24.00;99.30
3564;DHT22;1796;52.388;13.096;2023-05-10T14:15:12;24.00;98.70
3564;DHT22;1796;52.388;13.096;2023-05-10T14:17:39;24.00;98.90
3564;DHT22;1796;52.388;13.096;2023-05-10T14:20:07;24.00;98.60
3564;DHT22;1796;52.388;13.096;2023-05-10T14:22:34;24.10;98.30
3564;DHT22;1796;52.388;13.096;2023-05-10T14:25:01;24.10;97.80
3564;DHT22;1796;52.388;13.096;2023-05-10T14:27:28;24.20;98.50
3564;DHT22;1796;52.388;13.096;2023-05-10T14:29:57;24.30;98.40
3564;DHT22;1796;52.388;13.096;2023-05-10T14:32:23;24.40;98.80
3564;DHT22;1796;52.388;13.096;2023-05-10T14:34:52;24.60;98.80
3564;DHT22;1796;52.388;13.096;2023-05-10T14:37:19;24.50;98.90
3564;DHT22;1796;52.388;13.096;2023-05-10T14:39:46;24.40;98.10
3564;DHT22;1796;52.388;13.096;2023-05-10T14:42:13;24.50;98.20
3564;DHT22;1796;52.388;13.096;2023-05-10T14:44:40;24.60;98.20
3564;DHT22;1796;52.388;13.096;2023-05-10T14:47:08;24.20;97.30
3564;DHT22;1796;52.388;13.096;2023-05-10T14:49:35;24.40;97.80
3564;DHT22;1796;52.388;13.096;2023-05-10T14:52:02;24.30;97.50
3564;DHT22;1796;52.388;13.096;2023-05-10T14:54:28;24.00;97.40
3564;DHT22;1796;52.388;13.096;2023-05-10T14:56:55;24.30;97.70
3564;DHT22;1796;52.388;13.096;2023-05-10T14:59:22;24.60;98.30
3564;DHT22;1796;52.388;13.096;2023-05-10T15:01:50;24.80;98.10
3564;DHT22;1796;52.388;13.096;2023-05-10T15:04:18;24.60;97.40
3564;DHT22;1796;52.388;13.096;2023-05-10T15:06:46;24.70;97.50
3564;DHT22;1796;52.388;13.096;2023-05-10T15:09:13;24.90;97.50
3564;DHT22;1796;52.388;13.096;2023-05-10T15:11:41;25.00;97.70
3564;DHT22;1796;52.388;13.096;2023-05-10T15:14:08;25.20;97.80
3564;DHT22;1796;52.388;13.096;2023-05-10T15:16:35;25.10;99.90
3564;DHT22;1796;52.388;13.096;2023-05-10T15:19:02;24.80;99.90
3564;DHT22;1796;52.388;13.096;2023-05-10T15:21:30;24.50;99.90
3564;DHT22;1796;52.388;13.096;2023-05-10T15:24:04;24.10;99.90
3564;DHT22;1796;52.388;13.096;2023-05-10T15:26:31;24.00;99.90
3564;DHT22;1796;52.388;13.096;2023-05-10T15:28:58;23.60;99.90
3564;DHT22;1796;52.388;13.096;2023-05-10T15:31:25;23.80;99.90
3564;DHT22;1796;52.388;13.096;2023-05-10T15:33:57;23.80;99.90
3564;DHT22;1796;52.388;13.096;2023-05-10T15:36:24;24.00;99.90
3564;DHT22;1796;52.388;13.096;2023-05-10T15:38:53;23.90;99.90
3564;DHT22;1796;52.388;13.096;2023-05-10T15:41:20;23.50;99.90
3564;DHT22;1796;52.388;13.096;2023-05-10T15:43:47;23.30;99.90
3564;DHT22;1796;52.388;13.096;2023-05-10T15:46:14;23.20;99.90
3564;DHT22;1796;52.388;13.096;2023-05-10T15:48:41;23.00;99.90
3564;DHT22;1796;52.388;13.096;2023-05-10T15:51:08;22.90;99.90
3564;DHT22;1796;52.388;13.096;2023-05-10T15:53:34;22.80;99.90
3564;DHT22;1796;52.388;13.096;2023-05-10T15:56:03;22.80;99.90